Time;durP1;ratioP1;P1;durP2;ratioP2;P2;SDS_P1;SDS_P2;PMS_P1;PMS_P2;Temp;Humidity;BMP_temperature;BMP_pressure;BME280_temperature;BME280_humidity;BME280_pressure;Samples;Min_cycle;Max_cycle;Signal;HPM_P1;HPM_P2
2021/08/16 00:01:17;;;;;;;;;;;;;;;;;;5005959;28;19932;-68
2021/08/16 00:03:44;;;;;;;;;;;;;;;;;;5008675;28;19955;-68
2021/08/16 00:06:11;;;;;;;;;;;;;;;;;;5009575;28;19932;-67
2021/08/16 00:08:38;;;;;;;;;;;;;;;;;;5011328;28;19932;-68
2021/08/16 00:11:05;;;;;;;;;;;;;;;;;;5008126;28;19926;-67
2021/08/16 00:13:32;;;;;;;;;;;;;;;;;;5006337;28;19939;-68
2021/08/16 00:15:59;;;;;;;;;;;;;;;;;;5009938;28;19926;-67
2021/08/16 00:18:26;;;;;;;;;;;;;;;;;;5003376;28;19926;-67
2021/08/16 00:20:53;;;;;;;;;;;;;;;;;;5009580;28;19932;-67
2021/08/16 00:23:20;;;;;;;;;;;;;;;;;;5009383;28;19925;-67
2021/08/16 00:25:47;;;;;;;;;;;;;;;;;;5007819;28;19944;-67
2021/08/16 00:28:14;;;;;;;;;;;;;;;;;;5007285;28;19951;-68
2021/08/16 00:30:41;;;;;;;;;;;;;;;;;;5009504;28;19925;-68
2021/08/16 00:33:08;;;;;;;;;;;;;;;;;;5006350;28;19929;-67
2021/08/16 00:35:35;;;;;;;;;;;;;;;;;;5009845;28;19926;-68
2021/08/16 00:38:02;;;;;;;;;;;;;;;;;;5012072;28;20278;-68
2021/08/16 00:40:29;;;;;;;;;;;;;;;;;;5013984;28;19925;-68
2021/08/16 00:42:56;;;;;;;;;;;;;;;;;;5004022;28;19926;-68
2021/08/16 00:45:23;;;;;;;;;;;;;;;;;;5010246;28;20408;-68
2021/08/16 00:47:50;;;;;;;;;;;;;;;;;;5006575;28;19930;-69
2021/08/16 00:50:17;;;;;;;;;;;;;;;;;;5008723;28;20300;-68
2021/08/16 00:52:44;;;;;;;;;;;;;;;;;;5007711;28;20143;-68
2021/08/16 00:55:11;;;;;;;;;;;;;;;;;;5009574;28;19929;-68
2021/08/16 00:57:38;;;;;;;;;;;;;;;;;;5011372;28;19925;-68
2021/08/16 01:00:05;;;;;;;;;;;;;;;;;;5009459;28;19929;-68
2021/08/16 01:02:32;;;;;;;;;;;;;;;;;;5009843;28;19934;-68
2021/08/16 01:04:59;;;;;;;;;;;;;;;;;;5010586;28;19925;-67
2021/08/16 01:07:26;;;;;;;;;;;;;;;;;;5004648;28;19925;-68
2021/08/16 01:09:53;;;;;;;;;;;;;;;;;;5005669;28;19937;-68
2021/08/16 01:12:20;;;;;;;;;;;;;;;;;;5010092;28;19933;-67
2021/08/16 01:14:46;;;;;;;;;;;;;;;;;;5009348;28;19932;-68
2021/08/16 01:17:13;;;;;;;;;;;;;;;;;;5011420;28;20382;-68
2021/08/16 01:19:40;;;;;;;;;;;;;;;;;;5011692;28;19948;-68
2021/08/16 01:22:07;;;;;;;;;;;;;;;;;;5010648;28;19925;-69
2021/08/16 01:24:34;;;;;;;;;;;;;;;;;;5013277;28;19929;-68
2021/08/16 01:27:01;;;;;;;;;;;;;;;;;;5013251;28;20331;-68
2021/08/16 01:29:28;;;;;;;;;;;;;;;;;;5012579;28;20297;-68
2021/08/16 01:31:55;;;;;;;;;;;;;;;;;;5011205;28;19934;-68
2021/08/16 01:34:22;;;;;;;;;;;;;;;;;;5013632;28;19925;-68
2021/08/16 01:36:49;;;;;;;;;;;;;;;;;;5010826;28;19937;-68
2021/08/16 01:39:16;;;;;;;;;;;;;;;;;;5012146;28;20278;-68
2021/08/16 01:41:43;;;;;;;;;;;;;;;;;;5011537;28;19925;-68
2021/08/16 01:44:14;;;;;;;;;;;;;;;;;;5006198;28;19925;-68
2021/08/16 01:46:41;;;;;;;;;;;;;;;;;;5010687;28;20405;-68
2021/08/16 01:49:10;;;;;;;;;;;;;;;;;;5012109;28;21680;-68
2021/08/16 01:51:37;;;;;;;;;;;;;;;;;;5008683;28;19940;-68
2021/08/16 01:54:04;;;;;;;;;;;;;;;;;;5011715;28;20266;-68
2021/08/16 01:56:31;;;;;;;;;;;;;;;;;;5010284;28;19925;-68
2021/08/16 01:58:58;;;;;;;;;;;;;;;;;;5014820;28;19933;-68
2021/08/16 02:01:25;;;;;;;;;;;;;;;;;;5009526;28;19936;-67
2021/08/16 02:03:52;;;;;;;;;;;;;;;;;;5011610;28;20411;-68
2021/08/16 02:06:19;;;;;;;;;;;;;;;;;;5012726;28;19933;-69
2021/08/16 02:08:45;;;;;;;;;;;;;;;;;;5011810;28;19951;-68
2021/08/16 02:11:12;;;;;;;;;;;;;;;;;;5010011;28;19925;-68
2021/08/16 02:13:39;;;;;;;;;;;;;;;;;;5008591;28;19933;-68
2021/08/16 02:16:06;;;;;;;;;;;;;;;;;;5011752;28;19932;-68
2021/08/16 02:18:33;;;;;;;;;;;;;;;;;;5012491;28;19929;-68
2021/08/16 02:21:00;;;;;;;;;;;;;;;;;;5008414;28;19948;-68
2021/08/16 02:23:27;;;;;;;;;;;;;;;;;;5010821;28;19930;-68
2021/08/16 02:25:54;;;;;;;;;;;;;;;;;;5007867;28;19936;-68
2021/08/16 02:28:21;;;;;;;;;;;;;;;;;;5008651;28;19926;-68
2021/08/16 02:30:48;;;;;;;;;;;;;;;;;;5010357;28;19932;-69
2021/08/16 02:33:14;;;;;;;;;;;;;;;;;;5011558;28;19932;-68
2021/08/16 02:35:41;;;;;;;;;;;;;;;;;;5011719;28;19925;-68
2021/08/16 02:38:08;;;;;;;;;;;;;;;;;;5013785;28;19933;-69
2021/08/16 02:40:35;;;;;;;;;;;;;;;;;;5009091;28;19930;-69
2021/08/16 02:43:02;;;;;;;;;;;;;;;;;;5007247;28;20414;-69
2021/08/16 02:45:29;;;;;;;;;;;;;;;;;;5008909;28;20348;-69
2021/08/16 02:47:56;;;;;;;;;;;;;;;;;;5012341;28;19944;-69
2021/08/16 02:50:23;;;;;;;;;;;;;;;;;;5010893;28;19948;-68
2021/08/16 02:52:51;;;;;;;;;;;;;;;;;;5007050;28;19925;-69
2021/08/16 02:55:18;;;;;;;;;;;;;;;;;;5005125;28;19925;-68
2021/08/16 02:57:45;;;;;;;;;;;;;;;;;;5010635;28;19929;-67
2021/08/16 03:00:12;;;;;;;;;;;;;;;;;;5009198;28;20298;-68
2021/08/16 03:02:39;;;;;;;;;;;;;;;;;;5010440;28;19925;-69
2021/08/16 03:05:06;;;;;;;;;;;;;;;;;;5011342;28;19933;-68
2021/08/16 03:07:33;;;;;;;;;;;;;;;;;;5009557;28;19929;-68
2021/08/16 03:09:59;;;;;;;;;;;;;;;;;;5007289;28;19936;-68
2021/08/16 03:12:26;;;;;;;;;;;;;;;;;;5010618;28;20019;-68
2021/08/16 03:14:53;;;;;;;;;;;;;;;;;;5009190;28;19937;-67
2021/08/16 03:17:20;;;;;;;;;;;;;;;;;;5020814;28;19943;-69
2021/08/16 03:19:47;;;;;;;;;;;;;;;;;;5010949;28;19932;-68
2021/08/16 03:22:14;;;;;;;;;;;;;;;;;;5011209;28;20308;-68
2021/08/16 03:24:41;;;;;;;;;;;;;;;;;;5009735;28;19929;-69
2021/08/16 03:27:08;;;;;;;;;;;;;;;;;;5009573;28;20348;-68
2021/08/16 03:29:35;;;;;;;;;;;;;;;;;;5016444;28;19936;-68
2021/08/16 03:32:02;;;;;;;;;;;;;;;;;;5010093;28;19929;-69
2021/08/16 03:34:29;;;;;;;;;;;;;;;;;;5011862;28;19931;-68
2021/08/16 03:36:56;;;;;;;;;;;;;;;;;;5006140;28;19934;-68
2021/08/16 03:39:23;;;;;;;;;;;;;;;;;;5005355;28;19941;-67
2021/08/16 09:41:35;;;;;;;;;;;;;;;;;;5006872;23;19988;-68
2021/08/16 09:44:02;;;;;;;;;;;;;;;;;;4967528;28;19930;-69
2021/08/16 09:46:29;;;;;;;;;;;;;;;;;;4965693;28;19934;-69
2021/08/16 09:48:56;;;;;;;;;;;;;;;;;;4965454;28;20029;-69
2021/08/16 09:51:23;;;;;;;;;;;;;;;;;;4962972;28;20017;-68
2021/08/16 09:53:50;;;;;;;;;;;;;;;;;;4960111;28;19926;-69
2021/08/16 09:56:17;;;;;;;;;;;;;;;;;;4969371;28;19930;-68
2021/08/16 09:58:44;;;;;;;;;;;;;;;;;;4984063;28;19940;-68
2021/08/16 10:01:11;;;;;;;;;;;;;;;;;;4963405;28;19933;-68
2021/08/16 10:03:38;;;;;;;;;;;;;;;;;;4967401;28;20382;-69
2021/08/16 10:06:05;;;;;;;;;;;;;;;;;;4962406;28;19930;-70
2021/08/16 10:08:32;;;;;;;;;;;;;;;;;;4960956;28;19926;-68
2021/08/16 10:10:59;;;;;;;;;;;;;;;;;;4963619;28;20494;-69
2021/08/16 10:13:26;;;;;;;;;;;;;;;;;;4967265;28;19930;-68
2021/08/16 10:15:53;;;;;;;;;;;;;;;;;;4966482;28;20393;-68
2021/08/16 10:18:20;;;;;;;;;;;;;;;;;;4977551;28;19926;-66
2021/08/16 10:20:47;;;;;;;;;;;;;;;;;;4968146;28;19926;-66
2021/08/16 10:23:14;;;;;;;;;;;;;;;;;;4964083;28;19926;-67
2021/08/16 10:25:41;;;;;;;;;;;;;;;;;;4963536;28;20408;-68
2021/08/16 10:28:08;;;;;;;;;;;;;;;;;;4964865;28;20047;-69
2021/08/16 10:30:35;;;;;;;;;;;;;;;;;;4966368;28;19934;-69
2021/08/16 10:33:02;;;;;;;;;;;;;;;;;;4974933;28;19926;-69
2021/08/16 10:35:29;;;;;;;;;;;;;;;;;;4967918;28;19926;-67
2021/08/16 10:37:56;;;;;;;;;;;;;;;;;;4971747;28;19929;-68
2021/08/16 10:40:25;;;;;;;;;;;;;;;;;;4967634;28;19926;-69
2021/08/16 10:42:53;;;;;;;;;;;;;;;;;;4976695;28;19934;-67
2021/08/16 10:45:20;;;;;;;;;;;;;;;;;;4965191;28;20012;-68
2021/08/16 10:47:47;;;;;;;;;;;;;;;;;;4968685;28;19933;-69
2021/08/16 10:50:14;;;;;;;;;;;;;;;;;;4964117;28;19933;-68
2021/08/16 10:52:41;;;;;;;;;;;;;;;;;;4955968;28;20425;-68
2021/08/16 10:55:08;;;;;;;;;;;;;;;;;;4965605;28;19926;-67
2021/08/16 10:57:35;;;;;;;;;;;;;;;;;;4963986;28;19930;-67
2021/08/16 11:00:02;;;;;;;;;;;;;;;;;;4968377;28;19933;-67
2021/08/16 11:02:29;;;;;;;;;;;;;;;;;;4966218;28;19926;-67
2021/08/16 11:04:56;;;;;;;;;;;;;;;;;;4961154;28;20394;-67
2021/08/16 11:07:23;;;;;;;;;;;;;;;;;;4959727;28;20219;-68
2021/08/16 11:09:50;;;;;;;;;;;;;;;;;;4959534;28;20336;-67
2021/08/16 11:12:17;;;;;;;;;;;;;;;;;;4961000;28;19930;-67
2021/08/16 11:14:48;;;;;;;;;;;;;;;;;;4958955;28;19941;-67
2021/08/16 11:17:15;;;;;;;;;;;;;;;;;;4955596;28;20020;-67
2021/08/16 11:19:42;;;;;;;;;;;;;;;;;;4963480;28;20013;-67
2021/08/16 11:22:09;;;;;;;;;;;;;;;;;;4966401;28;19932;-67
2021/08/16 11:24:38;;;;;;;;;;;;;;;;;;4968565;28;20005;-67
2021/08/16 11:27:04;;;;;;;;;;;;;;;;;;4956461;28;19934;-67
2021/08/16 11:29:31;;;;;;;;;;;;;;;;;;4961555;28;19930;-67
2021/08/16 11:32:01;;;;;;;;;;;;;;;;;;4959158;28;19929;-67
2021/08/16 11:34:28;;;;;;;;;;;;;;;;;;4959625;28;19941;-67
2021/08/16 11:36:56;;;;;;;;;;;;;;;;;;4958946;28;19950;-67
2021/08/16 11:39:23;;;;;;;;;;;;;;;;;;4958942;28;19926;-67
2021/08/16 11:41:50;;;;;;;;;;;;;;;;;;4961296;28;20467;-68
2021/08/16 11:44:17;;;;;;;;;;;;;;;;;;4967788;28;19937;-68
2021/08/16 11:46:44;;;;;;;;;;;;;;;;;;4960256;28;19926;-68
2021/08/16 11:49:11;;;;;;;;;;;;;;;;;;4961757;28;19933;-68
2021/08/16 11:51:38;;;;;;;;;;;;;;;;;;4961687;28;19934;-68
2021/08/16 11:54:05;;;;;;;;;;;;;;;;;;4968846;28;19926;-68
2021/08/16 11:56:32;;;;;;;;;;;;;;;;;;4960628;28;19973;-68
2021/08/16 11:58:59;;;;;;;;;;;;;;;;;;4965987;28;19949;-67
2021/08/16 12:01:26;;;;;;;;;;;;;;;;;;4959675;28;20002;-68
2021/08/16 12:03:53;;;;;;;;;;;;;;;;;;4962746;28;19926;-68
2021/08/16 12:06:20;;;;;;;;;;;;;;;;;;4964134;28;20296;-68
2021/08/16 12:08:47;;;;;;;;;;;;;;;;;;4962909;28;19930;-68
2021/08/16 12:11:14;;;;;;;;;;;;;;;;;;4959445;28;19930;-68
2021/08/16 12:13:41;;;;;;;;;;;;;;;;;;4964424;28;20306;-68
2021/08/16 12:16:08;;;;;;;;;;;;;;;;;;4964762;28;19932;-68
2021/08/16 12:18:35;;;;;;;;;;;;;;;;;;4966792;28;19927;-68
2021/08/16 12:21:02;;;;;;;;;;;;;;;;;;4960191;28;19930;-68
2021/08/16 12:23:29;;;;;;;;;;;;;;;;;;4962889;28;19931;-68
2021/08/16 12:25:56;;;;;;;;;;;;;;;;;;4960088;28;19936;-68
2021/08/16 12:28:23;;;;;;;;;;;;;;;;;;4962279;28;19993;-67
2021/08/16 12:30:50;;;;;;;;;;;;;;;;;;4965326;28;19931;-67
2021/08/16 12:33:18;;;;;;;;;;;;;;;;;;4964088;28;19927;-68
2021/08/16 12:35:45;;;;;;;;;;;;;;;;;;4963396;28;19926;-69
2021/08/16 12:38:12;;;;;;;;;;;;;;;;;;4960700;28;19930;-69
2021/08/16 12:40:39;;;;;;;;;;;;;;;;;;4959621;28;19930;-68
2021/08/16 12:43:06;;;;;;;;;;;;;;;;;;4960580;28;19926;-68
2021/08/16 12:45:33;;;;;;;;;;;;;;;;;;4962702;28;20413;-68
2021/08/16 12:48:00;;;;;;;;;;;;;;;;;;4963135;28;19926;-69
2021/08/16 12:50:27;;;;;;;;;;;;;;;;;;4966922;28;19930;-68
2021/08/16 12:52:54;;;;;;;;;;;;;;;;;;4960702;28;20422;-72
2021/08/16 12:55:21;;;;;;;;;;;;;;;;;;4965330;28;19926;-68
2021/08/16 12:57:48;;;;;;;;;;;;;;;;;;4963278;28;19926;-69
2021/08/16 13:00:15;;;;;;;;;;;;;;;;;;4960280;28;20406;-67
2021/08/16 13:02:42;;;;;;;;;;;;;;;;;;4959871;28;19933;-68
2021/08/16 13:05:09;;;;;;;;;;;;;;;;;;4963239;28;19930;-69
2021/08/16 13:07:36;;;;;;;;;;;;;;;;;;4963008;28;20013;-68
2021/08/16 13:10:03;;;;;;;;;;;;;;;;;;4968264;28;20394;-69
2021/08/16 13:12:30;;;;;;;;;;;;;;;;;;4966604;28;19930;-68
2021/08/16 13:14:57;;;;;;;;;;;;;;;;;;4968696;28;19937;-69
2021/08/16 13:17:24;;;;;;;;;;;;;;;;;;4965129;28;19933;-69
2021/08/16 13:19:51;;;;;;;;;;;;;;;;;;4964070;28;20455;-68
2021/08/16 13:22:18;;;;;;;;;;;;;;;;;;4962940;28;20848;-68
2021/08/16 13:24:45;;;;;;;;;;;;;;;;;;4968546;28;19949;-69
2021/08/16 13:27:12;;;;;;;;;;;;;;;;;;4967044;28;19926;-69
2021/08/16 13:29:39;;;;;;;;;;;;;;;;;;4963163;28;20043;-69
2021/08/16 13:32:06;;;;;;;;;;;;;;;;;;4966706;28;19926;-68
2021/08/16 13:34:33;;;;;;;;;;;;;;;;;;4962892;28;20305;-69
2021/08/16 13:37:00;;;;;;;;;;;;;;;;;;4968691;28;19926;-68
2021/08/16 13:39:27;;;;;;;;;;;;;;;;;;4966041;28;19930;-69
2021/08/16 13:41:54;;;;;;;;;;;;;;;;;;4965869;28;20029;-69
2021/08/16 13:44:21;;;;;;;;;;;;;;;;;;4965100;28;20021;-69
2021/08/16 13:46:48;;;;;;;;;;;;;;;;;;4970193;28;19930;-68
2021/08/16 13:49:15;;;;;;;;;;;;;;;;;;4966226;28;19946;-68
2021/08/16 13:51:42;;;;;;;;;;;;;;;;;;4965496;28;20005;-71
2021/08/16 13:54:09;;;;;;;;;;;;;;;;;;4965826;28;19926;-69
2021/08/16 13:56:36;;;;;;;;;;;;;;;;;;4969002;28;19940;-69
2021/08/16 13:59:03;;;;;;;;;;;;;;;;;;4963820;28;20044;-69
2021/08/16 14:01:30;;;;;;;;;;;;;;;;;;4964267;28;19934;-68
2021/08/16 14:03:57;;;;;;;;;;;;;;;;;;4962610;28;20330;-68
2021/08/16 14:06:25;;;;;;;;;;;;;;;;;;4961128;28;19926;-70
2021/08/16 14:08:52;;;;;;;;;;;;;;;;;;4965595;28;19956;-69
2021/08/16 14:11:18;;;;;;;;;;;;;;;;;;4966755;28;19927;-69
2021/08/16 14:13:45;;;;;;;;;;;;;;;;;;4964878;28;19926;-68
2021/08/16 14:16:12;;;;;;;;;;;;;;;;;;4965095;28;20522;-68
2021/08/16 14:18:39;;;;;;;;;;;;;;;;;;4962683;28;19930;-68
2021/08/16 14:21:06;;;;;;;;;;;;;;;;;;4960112;28;19942;-69
2021/08/16 14:23:33;;;;;;;;;;;;;;;;;;4958585;28;19926;-69
2021/08/16 14:26:00;;;;;;;;;;;;;;;;;;4963064;28;19968;-68
2021/08/16 14:28:27;;;;;;;;;;;;;;;;;;4963825;28;19944;-69
2021/08/16 14:30:54;;;;;;;;;;;;;;;;;;4961708;28;19926;-68
2021/08/16 14:33:23;;;;;;;;;;;;;;;;;;4968095;28;19927;-69
2021/08/16 14:35:51;;;;;;;;;;;;;;;;;;4965942;28;19985;-69
2021/08/16 14:38:18;;;;;;;;;;;;;;;;;;4961568;28;19930;-69
2021/08/16 14:40:45;;;;;;;;;;;;;;;;;;4958963;28;20359;-68
2021/08/16 14:43:12;;;;;;;;;;;;;;;;;;4967857;28;19932;-68
2021/08/16 14:45:39;;;;;;;;;;;;;;;;;;4966466;28;19934;-69
2021/08/16 14:48:06;;;;;;;;;;;;;;;;;;4966452;28;19933;-70
2021/08/16 14:50:33;;;;;;;;;;;;;;;;;;4967575;28;19931;-70
2021/08/16 14:53:01;;;;;;;;;;;;;;;;;;4964123;28;19931;-69
2021/08/16 14:55:28;;;;;;;;;;;;;;;;;;4964798;28;19984;-68
2021/08/16 14:57:55;;;;;;;;;;;;;;;;;;4964342;28;20445;-69
2021/08/16 15:00:22;;;;;;;;;;;;;;;;;;4969005;28;20017;-69
2021/08/16 15:02:49;;;;;;;;;;;;;;;;;;4964855;28;20386;-69
2021/08/16 15:05:16;;;;;;;;;;;;;;;;;;4964815;28;19953;-68
2021/08/16 15:07:43;;;;;;;;;;;;;;;;;;4966704;28;19926;-68
2021/08/16 15:10:10;;;;;;;;;;;;;;;;;;4966370;28;19933;-67
2021/08/16 15:12:38;;;;;;;;;;;;;;;;;;4969627;28;20021;-69
2021/08/16 15:15:05;;;;;;;;;;;;;;;;;;4966549;28;19930;-69
2021/08/16 15:17:32;;;;;;;;;;;;;;;;;;4969263;28;19932;-69
2021/08/16 15:19:59;;;;;;;;;;;;;;;;;;4961622;28;19970;-70
2021/08/16 15:22:26;;;;;;;;;;;;;;;;;;4974382;28;20413;-68
2021/08/16 15:24:53;;;;;;;;;;;;;;;;;;4966312;28;19932;-69
2021/08/16 15:27:20;;;;;;;;;;;;;;;;;;4964183;28;19965;-68
2021/08/16 15:29:47;;;;;;;;;;;;;;;;;;4962540;28;19927;-72
2021/08/16 15:32:14;;;;;;;;;;;;;;;;;;4964919;28;19932;-69
2021/08/16 15:34:41;;;;;;;;;;;;;;;;;;4970218;28;20020;-69
2021/08/16 15:37:08;;;;;;;;;;;;;;;;;;4969618;28;19934;-68
2021/08/16 15:39:35;;;;;;;;;;;;;;;;;;4962673;28;20378;-69
2021/08/16 15:42:02;;;;;;;;;;;;;;;;;;4967145;28;19932;-70
2021/08/16 15:44:29;;;;;;;;;;;;;;;;;;4968757;28;19936;-69
2021/08/16 15:46:56;;;;;;;;;;;;;;;;;;4967046;28;19930;-69
2021/08/16 15:49:23;;;;;;;;;;;;;;;;;;4964887;28;20303;-70
2021/08/16 15:51:50;;;;;;;;;;;;;;;;;;4966066;28;19930;-69
2021/08/16 15:54:17;;;;;;;;;;;;;;;;;;4970277;28;19926;-69
2021/08/16 15:56:44;;;;;;;;;;;;;;;;;;4965445;28;20295;-69
2021/08/16 15:59:11;;;;;;;;;;;;;;;;;;4966489;28;19934;-70
2021/08/16 16:01:38;;;;;;;;;;;;;;;;;;4958617;28;20069;-69
2021/08/16 16:04:05;;;;;;;;;;;;;;;;;;4970433;28;20317;-69
2021/08/16 16:06:32;;;;;;;;;;;;;;;;;;4958059;28;19930;-67
2021/08/16 16:08:59;;;;;;;;;;;;;;;;;;4968434;28;19930;-67
2021/08/16 16:11:26;;;;;;;;;;;;;;;;;;4963162;28;19926;-68
2021/08/16 16:13:53;;;;;;;;;;;;;;;;;;4970960;28;20426;-66
2021/08/16 16:16:20;;;;;;;;;;;;;;;;;;4960871;28;19934;-66
2021/08/16 16:18:47;;;;;;;;;;;;;;;;;;4964046;28;19934;-66
2021/08/16 16:21:14;;;;;;;;;;;;;;;;;;4966463;28;20427;-67
2021/08/16 16:23:41;;;;;;;;;;;;;;;;;;4962900;28;19933;-67
2021/08/16 16:26:08;;;;;;;;;;;;;;;;;;4965272;28;19929;-67
2021/08/16 16:28:36;;;;;;;;;;;;;;;;;;4958581;28;19926;-67
2021/08/16 16:31:03;;;;;;;;;;;;;;;;;;4962786;28;20030;-65
2021/08/16 16:33:30;;;;;;;;;;;;;;;;;;4963513;28;20029;-66
2021/08/16 16:35:57;;;;;;;;;;;;;;;;;;4961311;28;19933;-66
2021/08/16 16:38:24;;;;;;;;;;;;;;;;;;4962875;28;19937;-66
2021/08/16 16:40:51;;;;;;;;;;;;;;;;;;4964874;28;20552;-67
2021/08/16 16:43:18;;;;;;;;;;;;;;;;;;4963896;28;19926;-67
2021/08/16 16:45:45;;;;;;;;;;;;;;;;;;4965552;28;19934;-67
2021/08/16 16:48:12;;;;;;;;;;;;;;;;;;4968102;28;20324;-67
2021/08/16 16:50:39;;;;;;;;;;;;;;;;;;4962874;28;19930;-67
2021/08/16 16:53:06;;;;;;;;;;;;;;;;;;4962887;28;19926;-67
2021/08/16 16:55:35;;;;;;;;;;;;;;;;;;4968855;28;19989;-67
2021/08/16 16:58:02;;;;;;;;;;;;;;;;;;4971836;28;19930;-65
2021/08/16 17:00:29;;;;;;;;;;;;;;;;;;4965741;28;20521;-69
2021/08/16 17:02:56;;;;;;;;;;;;;;;;;;4968809;28;20013;-68
2021/08/16 17:05:23;;;;;;;;;;;;;;;;;;4966230;28;20301;-68
2021/08/16 17:07:50;;;;;;;;;;;;;;;;;;4966771;28;19934;-67
2021/08/16 17:10:17;;;;;;;;;;;;;;;;;;4967603;28;19961;-68
2021/08/16 17:12:44;;;;;;;;;;;;;;;;;;4968139;28;19941;-68
2021/08/16 17:15:11;;;;;;;;;;;;;;;;;;4965662;28;19934;-68
2021/08/16 17:17:38;;;;;;;;;;;;;;;;;;4967135;28;19937;-68
2021/08/16 17:20:05;;;;;;;;;;;;;;;;;;4967983;28;19934;-68
2021/08/16 17:22:32;;;;;;;;;;;;;;;;;;4968079;28;19927;-68
2021/08/16 17:24:59;;;;;;;;;;;;;;;;;;4966625;28;19926;-68
2021/08/16 17:27:26;;;;;;;;;;;;;;;;;;4963520;28;19930;-68
2021/08/16 17:29:53;;;;;;;;;;;;;;;;;;4964532;28;19935;-68
2021/08/16 17:32:20;;;;;;;;;;;;;;;;;;4963550;28;20321;-68
2021/08/16 17:34:47;;;;;;;;;;;;;;;;;;4967353;28;19930;-68
2021/08/16 17:37:14;;;;;;;;;;;;;;;;;;4964984;28;19927;-68
2021/08/16 17:39:41;;;;;;;;;;;;;;;;;;4964118;28;19930;-67
2021/08/16 17:42:08;;;;;;;;;;;;;;;;;;4967655;28;20283;-68
2021/08/16 17:44:35;;;;;;;;;;;;;;;;;;4964276;28;20382;-68
2021/08/16 17:47:02;;;;;;;;;;;;;;;;;;4969136;28;19940;-68
2021/08/16 17:49:29;;;;;;;;;;;;;;;;;;4979268;28;19934;-67
2021/08/16 17:51:57;;;;;;;;;;;;;;;;;;4967084;28;20013;-68
2021/08/16 17:54:24;;;;;;;;;;;;;;;;;;4966054;28;19927;-68
2021/08/16 17:56:51;;;;;;;;;;;;;;;;;;4964832;28;19940;-68
2021/08/16 17:59:18;;;;;;;;;;;;;;;;;;4963727;28;19934;-68
2021/08/16 18:01:45;;;;;;;;;;;;;;;;;;4969162;28;19934;-67
2021/08/16 18:04:12;;;;;;;;;;;;;;;;;;4971218;28;19933;-68
2021/08/16 18:06:39;;;;;;;;;;;;;;;;;;4966857;28;20306;-68
2021/08/16 18:09:07;;;;;;;;;;;;;;;;;;4976075;28;20020;-68
2021/08/16 18:11:35;;;;;;;;;;;;;;;;;;4966297;28;20287;-68
2021/08/16 18:14:02;;;;;;;;;;;;;;;;;;4964728;28;19926;-68
2021/08/16 18:16:30;;;;;;;;;;;;;;;;;;4963068;28;19930;-69
2021/08/16 18:18:57;;;;;;;;;;;;;;;;;;4971763;28;19930;-68
2021/08/16 18:21:23;;;;;;;;;;;;;;;;;;4964013;28;19926;-69
2021/08/16 18:23:50;;;;;;;;;;;;;;;;;;4969239;28;19932;-66
2021/08/16 18:26:17;;;;;;;;;;;;;;;;;;4962924;28;19958;-68
2021/08/16 18:28:44;;;;;;;;;;;;;;;;;;4970022;28;19942;-67
2021/08/16 18:31:11;;;;;;;;;;;;;;;;;;4963753;28;19933;-67
2021/08/16 18:33:38;;;;;;;;;;;;;;;;;;4964771;28;19937;-67
2021/08/16 18:36:05;;;;;;;;;;;;;;;;;;4960347;28;20309;-69
2021/08/16 18:38:32;;;;;;;;;;;;;;;;;;4971303;28;19952;-68
2021/08/16 18:40:59;;;;;;;;;;;;;;;;;;4960233;28;19927;-68
2021/08/16 18:43:26;;;;;;;;;;;;;;;;;;4967537;28;20394;-67
2021/08/16 18:45:53;;;;;;;;;;;;;;;;;;4962764;28;19926;-67
2021/08/16 18:48:20;;;;;;;;;;;;;;;;;;4964311;28;19933;-67
2021/08/16 18:50:47;;;;;;;;;;;;;;;;;;4962578;28;20390;-69
2021/08/16 18:53:14;;;;;;;;;;;;;;;;;;4965024;28;19929;-67
2021/08/16 18:55:41;;;;;;;;;;;;;;;;;;4957729;28;20360;-67
2021/08/16 18:58:08;;;;;;;;;;;;;;;;;;4965087;28;19930;-67
2021/08/16 19:00:35;;;;;;;;;;;;;;;;;;4959901;28;19935;-68
2021/08/16 19:03:01;;;;;;;;;;;;;;;;;;4962501;28;19930;-68
2021/08/16 19:05:28;;;;;;;;;;;;;;;;;;4970274;28;20361;-68
2021/08/16 19:07:55;;;;;;;;;;;;;;;;;;4959568;28;19926;-69
2021/08/16 19:10:23;;;;;;;;;;;;;;;;;;4965298;28;19962;-69
2021/08/16 19:12:50;;;;;;;;;;;;;;;;;;4961050;28;20313;-68
2021/08/16 19:15:17;;;;;;;;;;;;;;;;;;4963679;28;19934;-68
2021/08/16 19:17:43;;;;;;;;;;;;;;;;;;4963480;28;20233;-67
2021/08/16 19:20:10;;;;;;;;;;;;;;;;;;4962025;28;19936;-68
2021/08/16 19:22:37;;;;;;;;;;;;;;;;;;4962507;28;19933;-69
2021/08/16 19:25:04;;;;;;;;;;;;;;;;;;4959289;28;19988;-68
2021/08/16 19:27:31;;;;;;;;;;;;;;;;;;4963248;28;19926;-68
2021/08/16 19:29:58;;;;;;;;;;;;;;;;;;4963806;28;19932;-69
2021/08/16 19:32:25;;;;;;;;;;;;;;;;;;4964507;28;19930;-68
2021/08/16 19:34:52;;;;;;;;;;;;;;;;;;4968013;28;20033;-69
2021/08/16 19:37:20;;;;;;;;;;;;;;;;;;4964363;28;20029;-68
2021/08/16 19:39:47;;;;;;;;;;;;;;;;;;4963006;28;19940;-68
2021/08/16 19:42:14;;;;;;;;;;;;;;;;;;4964121;28;19930;-68
2021/08/16 19:44:41;;;;;;;;;;;;;;;;;;4964162;28;20034;-69
2021/08/16 19:47:08;;;;;;;;;;;;;;;;;;4957183;28;21709;-67
2021/08/16 19:49:35;;;;;;;;;;;;;;;;;;4958219;28;19934;-66
2021/08/16 19:52:02;;;;;;;;;;;;;;;;;;4959750;28;19927;-67
2021/08/16 19:54:29;;;;;;;;;;;;;;;;;;4963325;28;19934;-67
2021/08/16 19:56:56;;;;;;;;;;;;;;;;;;4966289;28;20025;-67
2021/08/16 19:59:23;;;;;;;;;;;;;;;;;;4964978;28;19927;-68
2021/08/16 20:01:50;;;;;;;;;;;;;;;;;;4967218;28;20334;-68
2021/08/16 20:04:17;;;;;;;;;;;;;;;;;;4964632;28;20346;-68
2021/08/16 20:06:43;;;;;;;;;;;;;;;;;;4962684;28;19937;-68
2021/08/16 20:09:10;;;;;;;;;;;;;;;;;;4964763;28;19926;-67
2021/08/16 20:11:37;;;;;;;;;;;;;;;;;;4966186;28;19950;-66
2021/08/16 20:14:04;;;;;;;;;;;;;;;;;;4959061;28;20024;-66
2021/08/16 20:16:31;;;;;;;;;;;;;;;;;;4960168;28;19966;-67
2021/08/16 20:18:58;;;;;;;;;;;;;;;;;;4970798;28;19933;-69
2021/08/16 20:21:25;;;;;;;;;;;;;;;;;;4959530;28;19926;-68
2021/08/16 20:23:52;;;;;;;;;;;;;;;;;;4963367;28;20084;-68
2021/08/16 20:26:19;;;;;;;;;;;;;;;;;;4970112;28;19934;-68
2021/08/16 20:28:46;;;;;;;;;;;;;;;;;;4967527;28;19926;-68
2021/08/16 20:31:14;;;;;;;;;;;;;;;;;;4965422;28;20011;-68
2021/08/16 20:33:41;;;;;;;;;;;;;;;;;;4965882;28;19925;-68
2021/08/16 20:36:08;;;;;;;;;;;;;;;;;;4963384;28;19926;-68
2021/08/16 20:38:35;;;;;;;;;;;;;;;;;;4967651;28;20017;-69
2021/08/16 20:41:02;;;;;;;;;;;;;;;;;;4958913;28;19926;-68
2021/08/16 20:43:29;;;;;;;;;;;;;;;;;;4968125;28;19932;-67
2021/08/16 20:45:56;;;;;;;;;;;;;;;;;;4960556;28;20460;-67
2021/08/16 20:48:23;;;;;;;;;;;;;;;;;;4959446;28;20437;-67
2021/08/16 20:50:50;;;;;;;;;;;;;;;;;;4958066;28;19934;-67
2021/08/16 20:53:17;;;;;;;;;;;;;;;;;;4967405;28;19932;-68
2021/08/16 20:55:44;;;;;;;;;;;;;;;;;;4958020;28;19930;-68
2021/08/16 20:58:11;;;;;;;;;;;;;;;;;;4958482;28;19933;-68
2021/08/16 21:00:38;;;;;;;;;;;;;;;;;;4965020;28;20297;-68
2021/08/16 21:03:05;;;;;;;;;;;;;;;;;;4965052;28;20562;-68
2021/08/16 21:05:32;;;;;;;;;;;;;;;;;;4958385;28;19985;-67
2021/08/16 21:07:59;;;;;;;;;;;;;;;;;;4965373;28;19926;-67
2021/08/16 21:10:26;;;;;;;;;;;;;;;;;;4961275;28;20046;-68
2021/08/16 21:12:53;;;;;;;;;;;;;;;;;;4961754;28;21300;-68
2021/08/16 21:15:22;;;;;;;;;;;;;;;;;;4963128;28;19941;-67
2021/08/16 21:17:49;;;;;;;;;;;;;;;;;;4960161;28;19927;-68
2021/08/16 21:20:16;;;;;;;;;;;;;;;;;;4960489;28;19930;-68
2021/08/16 21:22:43;;;;;;;;;;;;;;;;;;4963890;28;19931;-67
2021/08/16 21:25:10;;;;;;;;;;;;;;;;;;4961335;28;19934;-66
2021/08/16 21:27:37;;;;;;;;;;;;;;;;;;4961814;28;19926;-67
2021/08/16 21:30:04;;;;;;;;;;;;;;;;;;4964552;28;19926;-67
2021/08/16 21:32:33;;;;;;;;;;;;;;;;;;4962408;28;20350;-68
2021/08/16 21:35:02;;;;;;;;;;;;;;;;;;4973187;28;19937;-67
2021/08/16 21:37:29;;;;;;;;;;;;;;;;;;4967939;28;19930;-66
2021/08/16 21:39:55;;;;;;;;;;;;;;;;;;4963939;28;20305;-66
2021/08/16 21:42:24;;;;;;;;;;;;;;;;;;5035145;22;20318;-66
2021/08/16 21:44:51;;;;;;;;;;;;;;;;;;5051744;28;19931;-66
2021/08/16 21:47:18;;;;;;;;;;;;;;;;;;5050268;28;20007;-65
2021/08/16 21:49:45;;;;;;;;;;;;;;;;;;5047577;28;20010;-69
2021/08/16 21:52:12;;;;;;;;;;;;;;;;;;5048106;28;20019;-65
2021/08/16 21:54:39;;;;;;;;;;;;;;;;;;5046876;28;20038;-66
2021/08/16 21:57:07;;;;;;;;;;;;;;;;;;5047086;28;19940;-65
2021/08/16 21:59:34;;;;;;;;;;;;;;;;;;5040769;28;19929;-65
2021/08/16 22:02:01;;;;;;;;;;;;;;;;;;5046159;28;19967;-66
2021/08/16 22:04:28;;;;;;;;;;;;;;;;;;5045922;28;19934;-66
2021/08/16 22:06:55;;;;;;;;;;;;;;;;;;5045588;28;19925;-66
2021/08/16 22:09:22;;;;;;;;;;;;;;;;;;5050581;28;20409;-66
2021/08/16 22:11:49;;;;;;;;;;;;;;;;;;5045671;28;20288;-66
2021/08/16 22:14:16;;;;;;;;;;;;;;;;;;5048642;28;19929;-66
2021/08/16 22:16:43;;;;;;;;;;;;;;;;;;5047373;28;19931;-66
2021/08/16 22:19:10;;;;;;;;;;;;;;;;;;5047987;28;20312;-67
2021/08/16 22:21:38;;;;;;;;;;;;;;;;;;5044660;28;20034;-65
2021/08/16 22:24:05;;;;;;;;;;;;;;;;;;5052159;28;20267;-66
2021/08/16 22:26:32;;;;;;;;;;;;;;;;;;5049550;28;19932;-65
2021/08/16 22:28:59;;;;;;;;;;;;;;;;;;5050969;28;19932;-66
2021/08/16 22:31:26;;;;;;;;;;;;;;;;;;5049675;28;19932;-65
2021/08/16 22:33:53;;;;;;;;;;;;;;;;;;5046745;28;20415;-66
2021/08/16 22:36:20;;;;;;;;;;;;;;;;;;5050976;28;19931;-66
2021/08/16 22:38:47;;;;;;;;;;;;;;;;;;5049133;28;19929;-65
2021/08/16 22:41:14;;;;;;;;;;;;;;;;;;5047587;28;19931;-64
2021/08/16 22:43:41;;;;;;;;;;;;;;;;;;5049705;28;19928;-66